Time;durP1;ratioP1;P1;durP2;ratioP2;P2;SDS_P1;SDS_P2;PMS_P1;PMS_P2;Temp;Humidity;BMP_temperature;BMP_pressure;BME280_temperature;BME280_humidity;BME280_pressure;Samples;Min_cycle;Max_cycle;Signal;HPM_P1;HPM_P2
2021/08/09 00:00:41;;;;;;;19.27;12.60;;;;;;;;;;5077371;28;20100;-77
2021/08/09 00:03:08;;;;;;;23.75;12.23;;;;;;;;;;5077478;28;20020;-76
2021/08/09 00:05:34;;;;;;;20.58;11.55;;;;;;;;;;5077337;28;20016;-77
2021/08/09 00:08:01;;;;;;;25.52;11.32;;;;;;;;;;5077266;28;20365;-76
2021/08/09 00:10:28;;;;;;;18.42;11.50;;;;;;;;;;5077415;28;20021;-76
2021/08/09 00:12:54;;;;;;;21.50;11.93;;;;;;;;;;5076213;28;20292;-76
2021/08/09 00:15:20;;;;;;;18.77;11.32;;;;;;;;;;5077440;28;20029;-76
2021/08/09 00:17:47;;;;;;;19.15;12.00;;;;;;;;;;5077200;28;20039;-76
2021/08/09 00:20:14;;;;;;;22.50;12.85;;;;;;;;;;5077077;28;20032;-76
2021/08/09 00:22:40;;;;;;;19.17;11.80;;;;;;;;;;5077301;28;20094;-76
2021/08/09 00:25:07;;;;;;;26.05;13.02;;;;;;;;;;5076092;28;20055;-76
2021/08/09 00:27:33;;;;;;;28.25;12.77;;;;;;;;;;5076834;28;20025;-76
2021/08/09 00:29:59;;;;;;;24.27;12.48;;;;;;;;;;5077278;28;20027;-76
2021/08/09 00:32:25;;;;;;;21.60;12.00;;;;;;;;;;5076622;28;20115;-77
2021/08/09 00:34:53;;;;;;;20.17;12.13;;;;;;;;;;5076050;28;20016;-76
2021/08/09 00:37:19;;;;;;;20.92;12.55;;;;;;;;;;5076878;28;20322;-76
2021/08/09 00:39:45;;;;;;;22.55;12.88;;;;;;;;;;5076501;28;20349;-77
2021/08/09 00:42:11;;;;;;;22.63;12.90;;;;;;;;;;5076863;28;20547;-76
2021/08/09 00:44:37;;;;;;;22.75;11.73;;;;;;;;;;5076887;28;20442;-76
2021/08/09 00:47:05;;;;;;;20.65;11.95;;;;;;;;;;5076469;28;20061;-77
2021/08/09 00:49:31;;;;;;;18.27;13.27;;;;;;;;;;5077043;28;20032;-76
2021/08/09 00:51:57;;;;;;;26.35;18.90;;;;;;;;;;5075832;28;20028;-76
2021/08/09 00:54:24;;;;;;;24.88;17.48;;;;;;;;;;5076759;28;20033;-76
2021/08/09 00:56:50;;;;;;;24.20;13.63;;;;;;;;;;5076739;28;20044;-76
2021/08/09 00:59:16;;;;;;;20.15;13.10;;;;;;;;;;5076463;28;20025;-77
2021/08/09 01:01:43;;;;;;;18.60;12.00;;;;;;;;;;5076617;28;20024;-76
2021/08/09 01:04:10;;;;;;;18.55;11.80;;;;;;;;;;5076654;28;20118;-76
2021/08/09 01:06:36;;;;;;;18.42;11.35;;;;;;;;;;5076524;28;20028;-76
2021/08/09 01:09:12;;;;;;;18.30;10.90;;;;;;;;;;5076386;28;20028;-77
2021/08/09 01:11:47;;;;;;;21.38;12.18;;;;;;;;;;5076549;28;20023;-76
2021/08/09 01:14:32;;;;;;;15.75;10.63;;;;;;;;;;5076896;28;20031;-76
2021/08/09 01:16:59;;;;;;;17.60;10.95;;;;;;;;;;5076650;28;20025;-76
2021/08/09 01:19:28;;;;;;;15.90;10.95;;;;;;;;;;5076573;28;20284;-76
2021/08/09 01:21:59;;;;;;;15.90;11.50;;;;;;;;;;5075549;28;20052;-76
2021/08/09 01:24:33;;;;;;;16.02;11.35;;;;;;;;;;5076101;28;20405;-76
2021/08/09 01:27:05;;;;;;;20.55;13.48;;;;;;;;;;5076542;28;20082;-76
2021/08/09 01:29:34;;;;;;;21.73;13.55;;;;;;;;;;5076566;28;20021;-78
2021/08/09 01:32:00;;;;;;;18.63;13.05;;;;;;;;;;5076446;28;20420;-78
2021/08/09 01:34:27;;;;;;;20.23;11.88;;;;;;;;;;5075686;28;20033;-79
2021/08/09 01:36:55;;;;;;;24.55;11.75;;;;;;;;;;5076398;28;20104;-79
2021/08/09 01:39:21;;;;;;;17.55;11.88;;;;;;;;;;5076388;28;20052;-79
2021/08/09 01:41:49;;;;;;;14.82;10.80;;;;;;;;;;5076527;28;20033;-79
2021/08/09 01:44:15;;;;;;;14.07;10.98;;;;;;;;;;5076346;28;20411;-79
2021/08/09 01:46:42;;;;;;;16.55;11.70;;;;;;;;;;5076349;28;20160;-79
2021/08/09 01:49:08;;;;;;;17.08;12.10;;;;;;;;;;5076233;28;20078;-79
2021/08/09 01:51:35;;;;;;;19.25;12.50;;;;;;;;;;5077209;28;20020;-79
2021/08/09 01:54:02;;;;;;;19.10;12.07;;;;;;;;;;5079974;28;20310;-79
2021/08/09 01:56:28;;;;;;;15.57;12.02;;;;;;;;;;5079724;28;20315;-79
2021/08/09 01:58:54;;;;;;;18.15;11.48;;;;;;;;;;5079826;28;20071;-79
2021/08/09 02:01:21;;;;;;;14.50;10.45;;;;;;;;;;5079768;28;20028;-79
2021/08/09 02:03:47;;;;;;;17.70;10.52;;;;;;;;;;5079656;28;20062;-79
2021/08/09 02:06:14;;;;;;;15.88;10.32;;;;;;;;;;5079503;28;20044;-79
2021/08/09 02:08:40;;;;;;;13.15;9.55;;;;;;;;;;5079573;28;20058;-79
2021/08/09 02:11:09;;;;;;;11.85;9.38;;;;;;;;;;5079691;28;20017;-79
2021/08/09 02:13:45;;;;;;;12.80;9.45;;;;;;;;;;5079658;28;20028;-79
2021/08/09 02:16:12;;;;;;;15.05;8.93;;;;;;;;;;5079474;28;20025;-79
2021/08/09 02:18:45;;;;;;;12.25;8.50;;;;;;;;;;5079266;28;20314;-79
2021/08/09 02:21:16;;;;;;;12.88;8.88;;;;;;;;;;5079225;28;20032;-79
2021/08/09 02:23:42;;;;;;;13.82;8.35;;;;;;;;;;5079038;28;20043;-79
2021/08/09 02:26:09;;;;;;;11.25;8.10;;;;;;;;;;5079404;28;20031;-79
2021/08/09 02:28:38;;;;;;;14.82;8.20;;;;;;;;;;5079203;28;20028;-79
2021/08/09 02:31:06;;;;;;;12.07;8.35;;;;;;;;;;5078489;28;20435;-79
2021/08/09 02:33:32;;;;;;;12.07;7.90;;;;;;;;;;5079030;28;20020;-79
2021/08/09 02:36:00;;;;;;;12.50;7.63;;;;;;;;;;5077977;28;20398;-79
2021/08/09 02:38:27;;;;;;;11.10;7.70;;;;;;;;;;5078970;28;20461;-79
2021/08/09 02:40:53;;;;;;;13.25;7.75;;;;;;;;;;5077826;28;20028;-79
2021/08/09 02:43:19;;;;;;;12.02;8.40;;;;;;;;;;5079074;28;20029;-79
2021/08/09 02:45:47;;;;;;;16.58;8.65;;;;;;;;;;5078164;28;20033;-79
2021/08/09 02:48:15;;;;;;;9.88;7.57;;;;;;;;;;5077511;28;20318;-79
2021/08/09 02:50:41;;;;;;;11.70;8.05;;;;;;;;;;5078697;28;20020;-78
2021/08/09 02:53:07;;;;;;;10.88;7.78;;;;;;;;;;5078584;28;20024;-79
2021/08/09 02:55:33;;;;;;;10.85;7.68;;;;;;;;;;5077581;28;20020;-79
2021/08/09 02:58:06;;;;;;;9.82;7.43;;;;;;;;;;5078591;28;20028;-79
2021/08/09 03:00:32;;;;;;;12.40;7.93;;;;;;;;;;5078683;28;20052;-79
2021/08/09 03:02:58;;;;;;;14.70;8.00;;;;;;;;;;5077978;28;20032;-79
2021/08/09 03:05:25;;;;;;;12.02;7.38;;;;;;;;;;5078700;28;20021;-79
2021/08/09 03:07:51;;;;;;;13.15;7.05;;;;;;;;;;5078510;28;20025;-79
2021/08/09 03:10:18;;;;;;;11.90;7.20;;;;;;;;;;5078551;28;20031;-79
2021/08/09 03:12:44;;;;;;;11.20;7.78;;;;;;;;;;5078360;28;20020;-79
2021/08/09 03:15:10;;;;;;;13.30;7.07;;;;;;;;;;5077577;28;20071;-79
2021/08/09 03:17:37;;;;;;;11.77;6.78;;;;;;;;;;5078114;28;20314;-79
2021/08/09 03:20:04;;;;;;;12.65;7.15;;;;;;;;;;5078119;28;20327;-79
2021/08/09 03:22:30;;;;;;;11.63;7.00;;;;;;;;;;5077097;28;20313;-79
2021/08/09 03:24:56;;;;;;;11.80;7.10;;;;;;;;;;5078000;28;20134;-79
2021/08/09 03:27:22;;;;;;;10.13;7.00;;;;;;;;;;5077899;28;20032;-79
2021/08/09 03:29:48;;;;;;;12.73;7.30;;;;;;;;;;5078053;28;20021;-79
2021/08/09 03:32:14;;;;;;;9.70;6.95;;;;;;;;;;5077896;28;20025;-79
2021/08/09 03:34:40;;;;;;;12.02;6.32;;;;;;;;;;5076791;28;20031;-79
2021/08/09 03:37:06;;;;;;;10.75;6.45;;;;;;;;;;5076785;28;20024;-79
2021/08/09 03:39:32;;;;;;;11.52;6.50;;;;;;;;;;5077087;28;20033;-79
2021/08/09 03:41:58;;;;;;;10.65;7.03;;;;;;;;;;5077841;28;20375;-79
2021/08/09 03:44:24;;;;;;;11.80;7.03;;;;;;;;;;5077923;28;20020;-79
2021/08/09 03:46:50;;;;;;;9.30;6.25;;;;;;;;;;5077639;28;20406;-79
2021/08/09 03:49:16;;;;;;;9.40;5.95;;;;;;;;;;5076618;28;20024;-79
2021/08/09 03:51:42;;;;;;;8.80;6.45;;;;;;;;;;5077714;28;20016;-79
2021/08/09 03:54:09;;;;;;;10.23;6.20;;;;;;;;;;5077448;28;20151;-79
2021/08/09 03:56:36;;;;;;;11.35;6.75;;;;;;;;;;5076477;28;20025;-79
2021/08/09 03:59:02;;;;;;;11.95;6.38;;;;;;;;;;5077576;28;20020;-79
2021/08/09 04:01:28;;;;;;;11.60;6.60;;;;;;;;;;5077395;28;20292;-79
2021/08/09 04:03:54;;;;;;;11.10;6.97;;;;;;;;;;5077342;28;20029;-79
2021/08/09 04:06:21;;;;;;;7.25;6.03;;;;;;;;;;5077248;28;20024;-79
2021/08/09 04:08:49;;;;;;;10.27;6.72;;;;;;;;;;5077596;28;20349;-79
2021/08/09 04:11:16;;;;;;;11.18;6.78;;;;;;;;;;5077596;28;20025;-79
2021/08/09 04:13:42;;;;;;;11.50;6.38;;;;;;;;;;5076873;28;20021;-79
2021/08/09 04:16:08;;;;;;;10.35;6.50;;;;;;;;;;5076739;28;20024;-79
2021/08/09 04:18:34;;;;;;;10.40;7.35;;;;;;;;;;5077016;28;20016;-79
2021/08/09 04:21:00;;;;;;;14.40;7.05;;;;;;;;;;5077176;28;20023;-79
2021/08/09 04:23:28;;;;;;;15.40;6.85;;;;;;;;;;5077422;28;20035;-79
2021/08/09 04:25:54;;;;;;;19.50;7.18;;;;;;;;;;5076690;28;20047;-79
2021/08/09 04:28:20;;;;;;;20.52;6.50;;;;;;;;;;5077005;28;20413;-79
2021/08/09 04:30:46;;;;;;;11.13;6.30;;;;;;;;;;5077219;28;20031;-79
2021/08/09 04:33:12;;;;;;;10.73;5.53;;;;;;;;;;5076137;28;20414;-79
2021/08/09 04:35:38;;;;;;;14.25;5.75;;;;;;;;;;5077277;28;20021;-79
2021/08/09 04:38:04;;;;;;;9.02;5.68;;;;;;;;;;5077215;28;20029;-79
2021/08/09 04:40:31;;;;;;;10.65;5.30;;;;;;;;;;5077064;28;20032;-78
2021/08/09 04:42:57;;;;;;;10.52;5.10;;;;;;;;;;5075925;28;20017;-79
2021/08/09 04:45:24;;;;;;;8.98;5.13;;;;;;;;;;5076281;28;20036;-79
2021/08/09 04:47:51;;;;;;;6.90;4.75;;;;;;;;;;5076824;28;20028;-79
2021/08/09 04:50:17;;;;;;;7.85;4.93;;;;;;;;;;5077143;28;20037;-79
2021/08/09 04:52:43;;;;;;;8.35;4.43;;;;;;;;;;5076923;28;20063;-78
2021/08/09 04:55:15;;;;;;;7.65;4.78;;;;;;;;;;5077051;28;20038;-79
2021/08/09 04:57:41;;;;;;;7.70;4.70;;;;;;;;;;5076699;28;20414;-78
2021/08/09 05:00:08;;;;;;;7.40;4.63;;;;;;;;;;5075683;28;20403;-79
2021/08/09 05:02:38;;;;;;;9.55;4.88;;;;;;;;;;5076503;28;20032;-79
2021/08/09 05:05:05;;;;;;;9.15;4.45;;;;;;;;;;5076898;28;20029;-79
2021/08/09 05:07:31;;;;;;;5.65;4.13;;;;;;;;;;5076631;28;20025;-79
2021/08/09 05:09:57;;;;;;;6.80;4.53;;;;;;;;;;5076852;28;20013;-79
2021/08/09 05:12:23;;;;;;;6.30;4.00;;;;;;;;;;5076685;28;20024;-79
2021/08/09 05:14:49;;;;;;;8.18;4.15;;;;;;;;;;5076855;28;20107;-78
2021/08/09 05:17:15;;;;;;;8.23;4.63;;;;;;;;;;5076524;28;20035;-79
2021/08/09 05:19:41;;;;;;;6.13;4.13;;;;;;;;;;5074751;28;20421;-78
2021/08/09 05:22:07;;;;;;;5.38;4.28;;;;;;;;;;5075108;28;20029;-79
2021/08/09 05:24:35;;;;;;;6.20;3.78;;;;;;;;;;5076489;28;20131;-79
2021/08/09 05:27:01;;;;;;;9.85;4.00;;;;;;;;;;5079529;28;20478;-78
2021/08/09 05:29:27;;;;;;;7.85;4.22;;;;;;;;;;5079499;28;20043;-78
2021/08/09 05:31:53;;;;;;;6.35;4.22;;;;;;;;;;5080205;28;20021;-79
2021/08/09 05:34:20;;;;;;;7.10;4.10;;;;;;;;;;5078855;28;20039;-79
2021/08/09 05:36:46;;;;;;;5.43;4.38;;;;;;;;;;5079332;28;20438;-78
2021/08/09 05:39:12;;;;;;;7.85;4.45;;;;;;;;;;5080356;28;20319;-78
2021/08/09 05:41:38;;;;;;;7.25;4.38;;;;;;;;;;5080238;28;20036;-78
2021/08/09 05:44:04;;;;;;;9.30;4.60;;;;;;;;;;5080004;28;20433;-78
2021/08/09 05:46:30;;;;;;;8.68;4.28;;;;;;;;;;5079770;28;20032;-78
2021/08/09 05:48:56;;;;;;;7.43;4.55;;;;;;;;;;5079906;28;20020;-78
2021/08/09 05:51:22;;;;;;;6.72;4.10;;;;;;;;;;5079933;28;20490;-78
2021/08/09 05:53:48;;;;;;;6.47;4.15;;;;;;;;;;5080053;28;20056;-79
2021/08/09 05:56:14;;;;;;;8.77;4.80;;;;;;;;;;5080058;28;20028;-79
2021/08/09 05:58:40;;;;;;;9.18;4.45;;;;;;;;;;5079716;28;20028;-78
2021/08/09 06:01:06;;;;;;;8.52;4.57;;;;;;;;;;5079715;28;20024;-78
2021/08/09 06:03:33;;;;;;;5.82;4.68;;;;;;;;;;5078551;28;20105;-78
2021/08/09 06:05:59;;;;;;;13.70;5.30;;;;;;;;;;5079794;28;20040;-78
2021/08/09 06:08:25;;;;;;;7.03;4.60;;;;;;;;;;5079801;28;20099;-78
2021/08/09 06:10:51;;;;;;;6.95;5.03;;;;;;;;;;5078720;28;20484;-78
2021/08/09 06:13:17;;;;;;;7.78;4.50;;;;;;;;;;5078710;28;20059;-78
2021/08/09 06:15:43;;;;;;;7.28;4.47;;;;;;;;;;5079565;28;20052;-78
2021/08/09 06:18:09;;;;;;;10.82;5.13;;;;;;;;;;5079236;28;20024;-78
2021/08/09 06:20:37;;;;;;;6.40;4.70;;;;;;;;;;5079296;28;20020;-78
2021/08/09 06:23:04;;;;;;;8.55;4.75;;;;;;;;;;5079393;28;20032;-79
2021/08/09 06:25:30;;;;;;;7.75;5.35;;;;;;;;;;5078314;28;20128;-78
2021/08/09 06:27:56;;;;;;;5.97;4.68;;;;;;;;;;5078488;28;20458;-78
2021/08/09 06:30:22;;;;;;;7.47;5.07;;;;;;;;;;5079089;28;20522;-78
2021/08/09 06:32:48;;;;;;;7.50;4.95;;;;;;;;;;5079139;28;20017;-79
2021/08/09 06:35:15;;;;;;;9.48;5.40;;;;;;;;;;5079044;28;20024;-78
2021/08/09 06:37:41;;;;;;;9.93;5.40;;;;;;;;;;5078193;28;20062;-79
2021/08/09 06:40:08;;;;;;;7.85;5.40;;;;;;;;;;5079178;28;20029;-78
2021/08/09 06:42:34;;;;;;;7.07;5.13;;;;;;;;;;5078792;28;20025;-79
2021/08/09 06:45:00;;;;;;;9.23;5.78;;;;;;;;;;5079021;28;20054;-79
2021/08/09 06:47:27;;;;;;;9.40;5.13;;;;;;;;;;5078787;28;20098;-79
2021/08/09 06:49:53;;;;;;;12.27;7.68;;;;;;;;;;5078769;28;20135;-79
2021/08/09 06:52:20;;;;;;;6.55;5.00;;;;;;;;;;5078681;28;20417;-79
2021/08/09 06:54:46;;;;;;;6.90;5.00;;;;;;;;;;5079001;28;20031;-79
2021/08/09 06:57:13;;;;;;;7.47;4.43;;;;;;;;;;5078627;28;20441;-78
2021/08/09 06:59:39;;;;;;;8.70;5.07;;;;;;;;;;5078592;28;20043;-79
2021/08/09 07:02:07;;;;;;;8.55;5.35;;;;;;;;;;5077643;28;20035;-79
2021/08/09 07:04:33;;;;;;;11.93;5.80;;;;;;;;;;5077704;28;20093;-79
2021/08/09 07:06:59;;;;;;;9.02;5.05;;;;;;;;;;5077558;28;20029;-79
2021/08/09 07:09:25;;;;;;;13.98;6.90;;;;;;;;;;5078366;28;20063;-79
2021/08/09 07:11:51;;;;;;;9.60;6.32;;;;;;;;;;5078338;28;20024;-79
2021/08/09 07:14:19;;;;;;;9.70;5.60;;;;;;;;;;5077266;28;20024;-78
2021/08/09 07:16:45;;;;;;;8.48;5.63;;;;;;;;;;5078366;28;20025;-78
2021/08/09 07:19:12;;;;;;;12.30;5.70;;;;;;;;;;5076871;28;20029;-76
2021/08/09 07:21:39;;;;;;;6.95;5.00;;;;;;;;;;5078436;28;20032;-76
2021/08/09 07:24:05;;;;;;;6.95;4.97;;;;;;;;;;5076827;28;20102;-76
2021/08/09 07:26:32;;;;;;;10.35;7.13;;;;;;;;;;5078142;28;20044;-76
2021/08/09 07:28:59;;;;;;;7.03;5.05;;;;;;;;;;5078259;28;20032;-81
2021/08/09 07:31:25;;;;;;;8.10;5.40;;;;;;;;;;5077276;28;20028;-80
2021/08/09 07:33:51;;;;;;;8.63;5.60;;;;;;;;;;5077945;28;20028;-81
2021/08/09 07:36:17;;;;;;;8.75;4.80;;;;;;;;;;5076601;28;20020;-79
2021/08/09 07:38:43;;;;;;;8.50;5.47;;;;;;;;;;5077002;28;20020;-81
2021/08/09 07:41:10;;;;;;;8.02;5.60;;;;;;;;;;5077110;28;20448;-81
2021/08/09 07:43:36;;;;;;;8.90;5.40;;;;;;;;;;5077834;28;20323;-81
2021/08/09 07:46:02;;;;;;;7.03;4.97;;;;;;;;;;5077690;28;20023;-81
2021/08/09 07:48:30;;;;;;;7.05;5.15;;;;;;;;;;5077725;28;20032;-81
2021/08/09 07:50:56;;;;;;;8.57;5.07;;;;;;;;;;5077825;28;20357;-81
2021/08/09 07:53:22;;;;;;;6.05;5.10;;;;;;;;;;5076827;28;20086;-81
2021/08/09 07:55:48;;;;;;;8.85;5.03;;;;;;;;;;5076891;28;20024;-82
2021/08/09 07:58:14;;;;;;;10.57;5.55;;;;;;;;;;5077782;28;20023;-81
2021/08/09 08:00:40;;;;;;;7.95;5.15;;;;;;;;;;5077760;28;20024;-81
2021/08/09 08:03:07;;;;;;;7.38;5.05;;;;;;;;;;5077561;28;20024;-81
2021/08/09 08:05:33;;;;;;;8.93;4.75;;;;;;;;;;5076559;28;20042;-82
2021/08/09 08:07:59;;;;;;;6.28;4.88;;;;;;;;;;5076701;28;20405;-82
2021/08/09 08:10:26;;;;;;;7.00;5.20;;;;;;;;;;5077709;28;20025;-81
2021/08/09 08:12:52;;;;;;;5.50;4.72;;;;;;;;;;5076785;28;20033;-81
2021/08/09 08:15:18;;;;;;;9.35;4.80;;;;;;;;;;5077310;28;20032;-82
2021/08/09 08:17:44;;;;;;;7.00;4.53;;;;;;;;;;5077151;28;20112;-84
2021/08/09 08:20:10;;;;;;;6.45;4.55;;;;;;;;;;5077299;28;20024;-81
2021/08/09 08:22:36;;;;;;;7.07;4.88;;;;;;;;;;5076818;28;20029;-81
2021/08/09 08:25:03;;;;;;;10.80;5.03;;;;;;;;;;5075871;28;20048;-82
2021/08/09 08:27:29;;;;;;;7.28;5.28;;;;;;;;;;5077684;28;20077;-83
2021/08/09 08:29:56;;;;;;;6.85;4.85;;;;;;;;;;5077528;28;20048;-84
2021/08/09 08:32:23;;;;;;;6.75;5.25;;;;;;;;;;5077630;28;20058;-84
2021/08/09 08:34:49;;;;;;;14.48;5.78;;;;;;;;;;5077108;28;20025;-84
2021/08/09 08:37:15;;;;;;;6.05;4.05;;;;;;;;;;5077237;28;20028;-84
2021/08/09 08:39:41;;;;;;;6.47;4.80;;;;;;;;;;5076505;28;20024;-84
2021/08/09 08:42:07;;;;;;;8.90;4.80;;;;;;;;;;5077349;28;20032;-84
2021/08/09 08:44:33;;;;;;;7.70;5.05;;;;;;;;;;5076681;28;20039;-84
2021/08/09 08:47:00;;;;;;;7.78;4.88;;;;;;;;;;5077252;28;20032;-84
2021/08/09 08:49:27;;;;;;;8.10;4.43;;;;;;;;;;5077469;28;20103;-84
2021/08/09 08:51:53;;;;;;;6.35;4.82;;;;;;;;;;5076476;28;20056;-84
2021/08/09 08:54:19;;;;;;;7.32;4.63;;;;;;;;;;5077411;28;20036;-84
2021/08/09 08:56:46;;;;;;;5.10;4.40;;;;;;;;;;5077225;28;20407;-84
2021/08/09 08:59:15;;;;;;;8.13;4.28;;;;;;;;;;5076362;28;20020;-84
2021/08/09 09:01:51;;;;;;;6.68;4.72;;;;;;;;;;5079172;28;20035;-84
2021/08/09 09:04:20;;;;;;;8.43;4.85;;;;;;;;;;5081219;28;20021;-81
2021/08/09 09:06:46;;;;;;;6.45;4.40;;;;;;;;;;5081060;28;20079;-81
2021/08/09 09:09:22;;;;;;;7.90;4.55;;;;;;;;;;5080994;28;20021;-81
2021/08/09 09:11:49;;;;;;;7.88;4.15;;;;;;;;;;5080907;28;20028;-81
2021/08/09 09:14:23;;;;;;;10.07;4.40;;;;;;;;;;5079733;28;20025;-82
2021/08/09 09:16:50;;;;;;;9.73;4.45;;;;;;;;;;5080639;28;20074;-81
2021/08/09 09:19:32;;;;;;;5.55;4.60;;;;;;;;;;5079320;28;20028;-81
2021/08/09 09:21:58;;;;;;;5.72;3.72;;;;;;;;;;5080673;28;20025;-81
2021/08/09 09:24:26;;;;;;;6.97;4.30;;;;;;;;;;5080542;28;20492;-81
2021/08/09 09:26:57;;;;;;;7.63;4.13;;;;;;;;;;5080509;28;20041;-80
2021/08/09 09:29:24;;;;;;;11.63;4.00;;;;;;;;;;5079545;28;20426;-81
2021/08/09 09:31:51;;;;;;;6.15;3.95;;;;;;;;;;5079632;28;20029;-81
2021/08/09 09:34:18;;;;;;;7.05;3.90;;;;;;;;;;5079348;28;20028;-81
2021/08/09 09:36:58;;;;;;;6.88;4.05;;;;;;;;;;5079261;28;20031;-81
2021/08/09 09:39:29;;;;;;;7.35;4.07;;;;;;;;;;5079307;28;20369;-81
2021/08/09 09:41:55;;;;;;;5.82;4.15;;;;;;;;;;5080222;28;20027;-83
2021/08/09 09:44:25;;;;;;;6.53;4.03;;;;;;;;;;5080490;28;20074;-83
2021/08/09 09:46:51;;;;;;;6.10;3.85;;;;;;;;;;5080058;28;20044;-84
2021/08/09 09:49:35;;;;;;;7.55;3.75;;;;;;;;;;5080191;28;20051;-82
2021/08/09 09:52:01;;;;;;;9.55;3.95;;;;;;;;;;5080102;28;20016;-84
2021/08/09 09:54:28;;;;;;;5.70;3.70;;;;;;;;;;5080293;28;20399;-83
2021/08/09 09:56:54;;;;;;;5.82;3.13;;;;;;;;;;5080015;28;20047;-84
2021/08/09 09:59:21;;;;;;;11.00;4.50;;;;;;;;;;5079870;28;20021;-84
2021/08/09 10:01:49;;;;;;;4.32;3.67;;;;;;;;;;5079714;28;20028;-84
2021/08/09 10:04:15;;;;;;;4.63;3.47;;;;;;;;;;5079153;28;20042;-83
2021/08/09 10:06:42;;;;;;;5.68;4.00;;;;;;;;;;5079997;28;20108;-83
2021/08/09 10:09:08;;;;;;;5.53;3.67;;;;;;;;;;5079940;28;20025;-83
2021/08/09 10:11:36;;;;;;;7.20;3.70;;;;;;;;;;5079034;28;20024;-83
2021/08/09 10:14:03;;;;;;;4.47;3.47;;;;;;;;;;5079250;28;20031;-84
2021/08/09 10:16:32;;;;;;;5.85;3.70;;;;;;;;;;5079789;28;20056;-83
2021/08/09 10:18:59;;;;;;;6.68;3.78;;;;;;;;;;5079437;28;20043;-83
2021/08/09 10:21:29;;;;;;;4.60;3.60;;;;;;;;;;5078817;28;20033;-83
2021/08/09 10:23:56;;;;;;;5.67;3.73;;;;;;;;;;5079342;28;20048;-84
2021/08/09 10:26:22;;;;;;;5.05;3.40;;;;;;;;;;5079374;28;20284;-84
2021/08/09 10:28:54;;;;;;;14.32;4.40;;;;;;;;;;5079411;28;20069;-81
2021/08/09 10:31:21;;;;;;;5.38;4.25;;;;;;;;;;5078242;28;20032;-82
2021/08/09 10:33:48;;;;;;;5.88;3.78;;;;;;;;;;5079180;28;20021;-81
2021/08/09 10:36:17;;;;;;;4.78;3.63;;;;;;;;;;5078071;28;20111;-82
2021/08/09 10:38:44;;;;;;;7.03;4.00;;;;;;;;;;5078965;28;20036;-82
2021/08/09 10:41:10;;;;;;;9.50;4.22;;;;;;;;;;5078883;28;20017;-81
2021/08/09 10:43:40;;;;;;;6.93;4.15;;;;;;;;;;5078930;28;20307;-82
2021/08/09 10:46:26;;;;;;;8.57;4.20;;;;;;;;;;5077896;28;20112;-81
2021/08/09 10:48:52;;;;;;;5.93;3.90;;;;;;;;;;5078714;28;20394;-81
2021/08/09 10:51:19;;;;;;;6.85;4.38;;;;;;;;;;5079015;28;20062;-81
2021/08/09 10:53:47;;;;;;;8.07;3.47;;;;;;;;;;5079101;28;20040;-81
2021/08/09 10:56:44;;;;;;;7.00;3.92;;;;;;;;;;5078946;28;20020;-82
2021/08/09 10:59:10;;;;;;;7.53;3.67;;;;;;;;;;5077694;28;20031;-81
2021/08/09 11:01:56;;;;;;;7.63;4.50;;;;;;;;;;5079084;28;20413;-81
2021/08/09 11:04:22;;;;;;;6.18;3.90;;;;;;;;;;5078359;28;20062;-81
2021/08/09 11:06:53;;;;;;;5.68;3.70;;;;;;;;;;5077446;28;20066;-81
2021/08/09 11:09:35;;;;;;;6.47;3.88;;;;;;;;;;5078621;28;20315;-81
2021/08/09 11:12:20;;;;;;;5.65;3.80;;;;;;;;;;5078476;28;20021;-81
2021/08/09 11:15:06;;;;;;;8.15;4.13;;;;;;;;;;5078377;28;20418;-81
2021/08/09 11:17:38;;;;;;;4.78;3.70;;;;;;;;;;5077142;28;20303;-82
2021/08/09 11:20:14;;;;;;;5.65;4.32;;;;;;;;;;5078479;28;20028;-82
2021/08/09 11:22:40;;;;;;;6.43;3.97;;;;;;;;;;5078397;28;20103;-81
2021/08/09 11:25:27;;;;;;;5.88;4.13;;;;;;;;;;5077006;28;20137;-81
2021/08/09 11:28:04;;;;;;;4.75;3.53;;;;;;;;;;5077796;28;20411;-82
2021/08/09 11:30:49;;;;;;;6.47;4.25;;;;;;;;;;5077941;28;20021;-81
2021/08/09 11:33:19;;;;;;;5.95;3.97;;;;;;;;;;5077600;28;20331;-81
2021/08/09 11:35:46;;;;;;;6.57;3.77;;;;;;;;;;5076806;28;20028;-81
2021/08/09 11:38:13;;;;;;;7.35;4.13;;;;;;;;;;5078038;28;20025;-82
2021/08/09 11:40:44;;;;;;;9.32;4.13;;;;;;;;;;5077884;28;20028;-82
2021/08/09 11:43:11;;;;;;;5.65;4.32;;;;;;;;;;5077914;28;20028;-81
2021/08/09 11:45:38;;;;;;;7.57;4.35;;;;;;;;;;5077733;28;20025;-82
2021/08/09 11:48:05;;;;;;;8.50;4.30;;;;;;;;;;5077513;28;20028;-81
2021/08/09 11:50:38;;;;;;;8.77;4.05;;;;;;;;;;5077638;28;20070;-81
2021/08/09 11:53:05;;;;;;;6.15;4.35;;;;;;;;;;5076783;28;20449;-81
2021/08/09 11:55:33;;;;;;;5.97;3.90;;;;;;;;;;5077818;28;20136;-81
2021/08/09 11:57:59;;;;;;;5.97;3.95;;;;;;;;;;5076755;28;20040;-82
2021/08/09 12:00:36;;;;;;;8.50;4.70;;;;;;;;;;5076442;28;20349;-82
2021/08/09 12:03:13;;;;;;;5.78;4.40;;;;;;;;;;5077432;28;20025;-81
2021/08/09 12:05:39;;;;;;;5.60;4.18;;;;;;;;;;5077624;28;20356;-82
2021/08/09 12:08:06;;;;;;;10.63;4.30;;;;;;;;;;5076487;28;20086;-81
2021/08/09 12:10:33;;;;;;;5.22;4.28;;;;;;;;;;5077457;28;20021;-81
2021/08/09 12:12:59;;;;;;;8.38;4.22;;;;;;;;;;5077337;28;20017;-81
2021/08/09 12:15:25;;;;;;;9.25;5.05;;;;;;;;;;5077300;28;20311;-81
2021/08/09 12:18:05;;;;;;;7.75;4.32;;;;;;;;;;5077373;28;20083;-82
2021/08/09 12:20:31;;;;;;;4.70;3.97;;;;;;;;;;5077103;28;20028;-81
2021/08/09 12:22:57;;;;;;;8.07;4.45;;;;;;;;;;5076114;28;20024;-80
2021/08/09 12:25:34;;;;;;;7.57;4.60;;;;;;;;;;5076377;28;20371;-81
2021/08/09 12:28:01;;;;;;;6.47;4.10;;;;;;;;;;5077084;28;20418;-80
2021/08/09 12:30:27;;;;;;;5.57;4.30;;;;;;;;;;5076080;28;20012;-81
2021/08/09 12:32:56;;;;;;;6.03;4.50;;;;;;;;;;5064511;28;20050;-81
2021/08/09 12:35:31;;;;;;;6.60;4.70;;;;;;;;;;5056016;28;20116;-81
2021/08/09 12:37:57;;;;;;;5.50;3.90;;;;;;;;;;5055674;28;20442;-80
2021/08/09 12:40:24;;;;;;;10.90;4.28;;;;;;;;;;5055793;28;20040;-81
2021/08/09 12:43:06;;;;;;;6.30;3.90;;;;;;;;;;5056883;28;20032;-81
2021/08/09 12:45:32;;;;;;;5.13;3.85;;;;;;;;;;5056696;28;20029;-81
2021/08/09 12:47:58;;;;;;;4.88;4.35;;;;;;;;;;5056741;28;20025;-82
2021/08/09 12:50:24;;;;;;;8.13;4.13;;;;;;;;;;5056912;28;20084;-81
2021/08/09 12:52:50;;;;;;;8.25;4.28;;;;;;;;;;5056912;28;20025;-81
2021/08/09 12:55:17;;;;;;;8.98;3.90;;;;;;;;;;5057220;28;20060;-81
2021/08/09 12:57:43;;;;;;;8.45;4.40;;;;;;;;;;5057073;28;20039;-81
2021/08/09 13:00:09;;;;;;;7.20;4.00;;;;;;;;;;5056951;28;20029;-81
2021/08/09 13:02:35;;;;;;;4.60;4.10;;;;;;;;;;5055597;28;20028;-80
2021/08/09 13:05:01;;;;;;;6.70;3.88;;;;;;;;;;5056820;28;20021;-81
2021/08/09 13:07:28;;;;;;;5.60;4.00;;;;;;;;;;5056439;28;20048;-81
2021/08/09 13:09:57;;;;;;;8.75;4.03;;;;;;;;;;5056717;28;20017;-81
2021/08/09 13:12:23;;;;;;;5.40;3.83;;;;;;;;;;5055884;28;20022;-81
2021/08/09 13:14:52;;;;;;;9.80;4.10;;;;;;;;;;5056532;28;20307;-81
2021/08/09 13:17:18;;;;;;;4.97;3.75;;;;;;;;;;5055313;28;20040;-81
2021/08/09 13:19:44;;;;;;;7.53;4.32;;;;;;;;;;5056467;28;20059;-81
2021/08/09 13:22:10;;;;;;;11.00;4.30;;;;;;;;;;5056569;28;20350;-81
2021/08/09 13:24:36;;;;;;;4.53;3.53;;;;;;;;;;5055187;28;20052;-81
2021/08/09 13:27:03;;;;;;;5.13;3.70;;;;;;;;;;5056395;28;20040;-81
2021/08/09 13:29:29;;;;;;;6.25;3.40;;;;;;;;;;5056436;28;20422;-81
2021/08/09 13:31:55;;;;;;;7.90;4.35;;;;;;;;;;5056423;28;20100;-81
2021/08/09 13:34:21;;;;;;;6.95;3.97;;;;;;;;;;5056518;28;20031;-81
2021/08/09 13:36:47;;;;;;;7.60;4.00;;;;;;;;;;5056339;28;20036;-80
2021/08/09 13:39:13;;;;;;;6.72;4.03;;;;;;;;;;5056296;28;20032;-81
2021/08/09 13:41:39;;;;;;;7.63;3.67;;;;;;;;;;5056298;28;20163;-81
2021/08/09 13:44:05;;;;;;;8.80;4.10;;;;;;;;;;5056537;28;20021;-81
2021/08/09 13:46:32;;;;;;;5.60;3.40;;;;;;;;;;5056798;28;20063;-81
2021/08/09 13:48:58;;;;;;;5.95;3.83;;;;;;;;;;5059917;28;20021;-81
2021/08/09 13:51:24;;;;;;;4.60;3.25;;;;;;;;;;5060019;28;20366;-81
2021/08/09 13:53:50;;;;;;;5.30;3.63;;;;;;;;;;5058743;28;20025;-81
2021/08/09 13:56:16;;;;;;;3.97;3.30;;;;;;;;;;5059740;28;20036;-79
2021/08/09 13:58:43;;;;;;;7.13;3.35;;;;;;;;;;5059707;28;20485;-79
2021/08/09 14:01:10;;;;;;;9.73;3.97;;;;;;;;;;5058861;28;20041;-79
2021/08/09 14:03:36;;;;;;;4.75;3.33;;;;;;;;;;5059675;28;20028;-78
2021/08/09 14:06:07;;;;;;;5.00;3.58;;;;;;;;;;5058576;28;20057;-78
2021/08/09 14:08:33;;;;;;;5.50;3.60;;;;;;;;;;5058730;28;20036;-78
2021/08/09 14:10:59;;;;;;;8.93;3.63;;;;;;;;;;5059211;28;20029;-79
2021/08/09 14:13:25;;;;;;;7.95;3.47;;;;;;;;;;5059244;28;20040;-79
2021/08/09 14:15:55;;;;;;;8.80;3.70;;;;;;;;;;5059672;28;20071;-78
2021/08/09 14:18:21;;;;;;;6.32;3.50;;;;;;;;;;5058254;28;20029;-79
2021/08/09 14:20:47;;;;;;;10.02;3.53;;;;;;;;;;5060084;28;20029;-79
2021/08/09 14:23:13;;;;;;;5.97;2.78;;;;;;;;;;5058271;28;20151;-77
2021/08/09 14:25:39;;;;;;;4.38;3.13;;;;;;;;;;5058821;28;20339;-78
2021/08/09 14:28:06;;;;;;;5.72;3.50;;;;;;;;;;5059093;28;20103;-78
2021/08/09 14:30:32;;;;;;;8.05;3.28;;;;;;;;;;5058414;28;20031;-77
2021/08/09 14:33:00;;;;;;;8.88;3.42;;;;;;;;;;5059037;28;20025;-77
2021/08/09 14:35:26;;;;;;;6.25;3.45;;;;;;;;;;5059070;28;20028;-78
2021/08/09 14:37:52;;;;;;;5.38;3.55;;;;;;;;;;5059138;28;20036;-77